logo
Rechercher aéroport 
image banner adimage banner adimage banner ad
image banner ad

HKBR - Bura East

Situé à Bura, Kenya

ICAO - HKBR, IATA -

Données fournies par Airmate  

Information générale

Coordonnées: S1°5'51" E39°56'57"
Élévation : 345 feet MSL.
Variation magnétique : 0° East
Voir autres Aéroports à Coast Province

Données opérationnelles

Special qualification required
Heure actuelle UTC:
Heure actuelle locale:
Météo à : HKGA - Garissa ( 78 km )
METAR: HKGA 240700Z 18017KT 9999 FEW023 BKN080 29/19 Q1014
Voir NOTAMs / SUP AIP / TFR affectant cet aéroport [VIEW]
Fréquences de communication: [VIEW]

Pistes:

Identifiant RWYQFULongueur (ft)Largeur (ft)SurfaceLDA (ft)
33333°334195SAND
15153°334195SAND

Coordonnées de l'aéroport

Adresse: Bura Kenya

Vue satellite de HKBR